Time;durP1;ratioP1;P1;durP2;ratioP2;P2;SDS_P1;SDS_P2;PMS_P1;PMS_P2;Temp;Humidity;BMP_temperature;BMP_pressure;BME280_temperature;BME280_humidity;BME280_pressure;Samples;Min_cycle;Max_cycle;Signal;HPM_P1;HPM_P2
2023/06/29 00:01:45;;;;;;;10.98;9.52;;;18.60;84.50;;;;;;5020682;28;20169;-89
2023/06/29 00:04:11;;;;;;;12.68;9.48;;;18.70;84.50;;;;;;5019370;28;20196;-88
2023/06/29 00:06:37;;;;;;;11.00;9.30;;;18.60;84.80;;;;;;5001986;28;20241;-88
2023/06/29 00:09:05;;;;;;;15.15;10.07;;;18.50;84.80;;;;;;5002562;28;20237;-88
2023/06/29 00:11:33;;;;;;;12.00;10.35;;;18.50;85.00;;;;;;5019372;28;20170;-88
2023/06/29 00:13:58;;;;;;;14.90;11.50;;;18.50;85.20;;;;;;5019055;28;20339;-88
2023/06/29 00:16:24;;;;;;;12.18;10.90;;;18.50;85.20;;;;;;5001530;28;20224;-88
2023/06/29 00:18:49;;;;;;;13.98;11.73;;;18.50;85.20;;;;;;5000929;28;20178;-88
2023/06/29 00:21:16;;;;;;;17.58;11.63;;;18.50;85.10;;;;;;5001686;28;20172;-88
2023/06/29 00:23:42;;;;;;;18.27;11.88;;;18.50;85.30;;;;;;5000699;28;20582;-88
2023/06/29 00:26:07;;;;;;;16.95;12.07;;;18.50;85.30;;;;;;5018383;28;20165;-89
2023/06/29 00:28:33;;;;;;;16.55;11.65;;;18.50;85.40;;;;;;5000803;28;20278;-89
2023/06/29 00:30:58;;;;;;;14.50;12.55;;;18.50;85.50;;;;;;5001396;28;20213;-88
2023/06/29 00:33:24;;;;;;;15.80;12.23;;;18.60;85.30;;;;;;5001364;28;20216;-88
2023/06/29 00:35:49;;;;;;;19.88;12.27;;;18.60;85.30;;;;;;5001301;28;20173;-88
2023/06/29 00:38:15;;;;;;;13.45;12.05;;;18.50;85.60;;;;;;5000699;28;20169;-88
2023/06/29 00:40:40;;;;;;;14.98;12.32;;;18.50;85.70;;;;;;5001378;28;20227;-89
2023/06/29 00:43:06;;;;;;;16.98;12.68;;;18.60;85.70;;;;;;5000700;28;20579;-89
2023/06/29 00:45:31;;;;;;;17.55;13.27;;;18.60;85.70;;;;;;5000150;28;20189;-89
2023/06/29 00:47:57;;;;;;;14.10;12.38;;;18.50;85.60;;;;;;4999427;28;20173;-88
2023/06/29 00:50:23;;;;;;;21.52;13.38;;;18.60;85.80;;;;;;5000075;28;20189;-88
2023/06/29 00:52:49;;;;;;;17.85;13.75;;;18.50;85.80;;;;;;5017886;28;20221;-88
2023/06/29 00:55:14;;;;;;;22.83;16.55;;;18.50;86.00;;;;;;5000487;28;20166;-89
2023/06/29 00:57:40;;;;;;;22.80;16.58;;;18.30;86.10;;;;;;5017561;28;20173;-88
2023/06/29 01:00:10;;;;;;;23.90;16.58;;;18.40;86.20;;;;;;4999731;28;20265;-88
2023/06/29 01:02:40;;;;;;;23.80;16.58;;;18.40;86.10;;;;;;4999368;28;20227;-89
2023/06/29 01:05:16;;;;;;;26.20;17.75;;;18.40;86.20;;;;;;5001241;28;20231;-88
2023/06/29 01:07:52;;;;;;;24.50;16.48;;;18.40;86.30;;;;;;5018782;28;20192;-88
2023/06/29 01:10:25;;;;;;;27.42;16.83;;;18.50;86.30;;;;;;5000160;28;20176;-88
2023/06/29 01:12:52;;;;;;;20.38;16.77;;;18.40;86.80;;;;;;4999754;28;20213;-88
2023/06/29 01:15:20;;;;;;;23.02;16.38;;;18.30;87.20;;;;;;4999994;28;20712;-88
2023/06/29 01:17:47;;;;;;;22.77;16.77;;;18.40;87.20;;;;;;4999493;28;20173;-88
2023/06/29 01:20:14;;;;;;;23.50;18.10;;;18.30;87.10;;;;;;4999383;28;20173;-88
2023/06/29 01:23:05;;;;;;;23.48;18.48;;;18.30;87.10;;;;;;4999685;28;20197;-88
2023/06/29 01:25:32;;;;;;;24.30;17.73;;;18.30;87.30;;;;;;4989666;28;20185;-88
2023/06/29 01:27:58;;;;;;;27.80;18.48;;;18.30;87.20;;;;;;4999644;28;20276;-88
2023/06/29 01:30:24;;;;;;;31.40;19.63;;;18.30;87.30;;;;;;4999843;28;20272;-88
2023/06/29 01:32:50;;;;;;;21.88;19.15;;;18.20;87.40;;;;;;4999817;28;20213;-89
2023/06/29 01:35:15;;;;;;;29.67;19.83;;;18.20;87.40;;;;;;4999365;28;20247;-88
2023/06/29 01:37:59;;;;;;;22.05;19.40;;;18.20;87.60;;;;;;4999345;28;20585;-88
2023/06/29 01:40:28;;;;;;;24.65;19.48;;;18.20;87.60;;;;;;4998525;28;20256;-88
2023/06/29 01:42:55;;;;;;;24.98;21.05;;;18.20;87.80;;;;;;4998993;28;20676;-88
2023/06/29 01:45:22;;;;;;;31.05;21.15;;;18.20;87.70;;;;;;4999884;28;20173;-88
2023/06/29 01:47:47;;;;;;;27.15;19.92;;;18.20;87.70;;;;;;5017205;28;20197;-88
2023/06/29 01:50:14;;;;;;;27.77;20.20;;;18.20;87.80;;;;;;4999273;28;20200;-88
2023/06/29 01:52:40;;;;;;;25.42;20.45;;;18.20;88.10;;;;;;4998000;28;20209;-88
2023/06/29 01:55:09;;;;;;;25.98;20.67;;;18.20;88.10;;;;;;4998815;28;20176;-88
2023/06/29 01:57:34;;;;;;;26.88;21.17;;;18.10;88.10;;;;;;4998336;28;20173;-88
2023/06/29 02:00:00;;;;;;;28.17;21.70;;;18.20;88.00;;;;;;4998800;28;20651;-88
2023/06/29 02:02:25;;;;;;;24.55;20.58;;;18.20;87.70;;;;;;4998600;28;20178;-88
2023/06/29 02:04:51;;;;;;;27.60;22.40;;;18.20;87.80;;;;;;4998902;28;20213;-89
2023/06/29 02:07:16;;;;;;;26.73;21.80;;;18.20;87.70;;;;;;4999192;28;20216;-89
2023/06/29 02:09:43;;;;;;;24.92;20.42;;;18.20;87.70;;;;;;4998901;28;20565;-89
2023/06/29 02:12:09;;;;;;;27.42;21.73;;;18.20;87.90;;;;;;5016872;28;20165;-88
2023/06/29 02:14:34;;;;;;;25.17;22.13;;;18.20;87.90;;;;;;4998872;28;20247;-89
2023/06/29 02:17:00;;;;;;;28.33;23.58;;;18.20;87.80;;;;;;5015617;28;20584;-88
2023/06/29 02:19:26;;;;;;;27.50;22.85;;;18.20;87.60;;;;;;4998319;28;20177;-88
2023/06/29 02:21:51;;;;;;;31.15;27.13;;;18.20;87.60;;;;;;5016543;28;20751;-88
2023/06/29 02:24:17;;;;;;;29.52;26.30;;;18.20;87.60;;;;;;5016219;28;20216;-88
2023/06/29 02:26:42;;;;;;;31.55;26.90;;;18.20;87.80;;;;;;4998324;28;20276;-88
2023/06/29 02:29:08;;;;;;;29.80;26.63;;;18.20;87.90;;;;;;5016198;28;20549;-88
2023/06/29 02:31:33;;;;;;;31.05;26.55;;;18.20;87.90;;;;;;4998480;28;20184;-89
2023/06/29 02:33:59;;;;;;;31.98;26.08;;;18.20;87.80;;;;;;4998590;28;20213;-89
2023/06/29 02:36:24;;;;;;;32.38;27.85;;;18.20;87.80;;;;;;4999145;28;20598;-88
2023/06/29 02:38:50;;;;;;;36.20;28.30;;;18.20;87.90;;;;;;4998988;28;20272;-88
2023/06/29 02:41:15;;;;;;;28.98;25.38;;;18.20;88.00;;;;;;4998931;28;20288;-86
2023/06/29 02:43:41;;;;;;;35.50;27.20;;;18.20;88.30;;;;;;4997664;28;20352;-88
2023/06/29 02:46:07;;;;;;;29.23;24.95;;;18.10;88.70;;;;;;4999125;28;20572;-88
2023/06/29 02:48:32;;;;;;;32.08;26.13;;;18.10;88.90;;;;;;4999468;28;20232;-89
2023/06/29 02:50:58;;;;;;;28.33;25.23;;;18.10;89.10;;;;;;4999179;28;20280;-88
2023/06/29 02:53:23;;;;;;;33.08;26.67;;;18.10;89.20;;;;;;5016451;28;20213;-89
2023/06/29 02:55:49;;;;;;;29.90;26.38;;;18.00;89.30;;;;;;4998367;28;20181;-88
2023/06/29 02:58:14;;;;;;;34.08;26.83;;;18.00;89.30;;;;;;4998690;28;20184;-88
2023/06/29 03:00:40;;;;;;;35.78;27.95;;;18.00;89.50;;;;;;4998435;28;20180;-88
2023/06/29 03:03:05;;;;;;;35.05;27.88;;;18.00;89.60;;;;;;4998374;28;20208;-88
2023/06/29 03:05:31;;;;;;;33.63;26.98;;;18.00;89.80;;;;;;4998343;28;20181;-88
2023/06/29 03:07:56;;;;;;;33.50;28.33;;;18.00;89.90;;;;;;4998176;28;20181;-88
2023/06/29 03:10:22;;;;;;;35.70;28.75;;;17.90;90.00;;;;;;4998158;28;20185;-88
2023/06/29 03:12:47;;;;;;;36.88;29.73;;;17.90;90.10;;;;;;4998369;28;20205;-88
2023/06/29 03:15:13;;;;;;;35.17;28.92;;;17.90;90.20;;;;;;4998456;28;20208;-88
2023/06/29 03:17:39;;;;;;;36.13;27.55;;;17.90;90.30;;;;;;4999054;28;20173;-89
2023/06/29 03:20:06;;;;;;;35.13;27.77;;;18.00;90.30;;;;;;4998998;28;20185;-88
2023/06/29 03:22:34;;;;;;;30.95;26.77;;;17.90;90.30;;;;;;4998019;28;20185;-88
2023/06/29 03:25:00;;;;;;;35.67;28.58;;;17.90;90.30;;;;;;4998961;28;20181;-89
2023/06/29 03:27:25;;;;;;;31.38;27.33;;;18.00;90.40;;;;;;4998694;28;20177;-89
2023/06/29 03:29:52;;;;;;;;;;;18.00;90.40;;;;;;4999182;28;20188;-88
2023/06/29 03:32:17;;;;;;;31.58;27.52;;;17.90;90.40;;;;;;4999290;28;20187;-89
2023/06/29 03:34:43;;;;;;;34.47;28.38;;;17.90;90.40;;;;;;4998699;28;20223;-88
2023/06/29 03:37:08;;;;;;;37.50;28.58;;;17.90;90.40;;;;;;4998826;28;20173;-88
2023/06/29 03:39:34;;;;;;;35.78;29.30;;;17.90;90.40;;;;;;5017005;28;20181;-89
2023/06/29 03:41:59;;;;;;;39.08;29.58;;;17.90;90.40;;;;;;4998934;28;20244;-89
2023/06/29 03:44:25;;;;;;;34.15;28.42;;;18.00;90.50;;;;;;4998902;28;20746;-88
2023/06/29 03:46:52;;;;;;;34.88;29.45;;;18.00;90.40;;;;;;4998420;28;20561;-88
2023/06/29 03:49:17;;;;;;;33.55;29.27;;;18.00;90.40;;;;;;4997885;28;20186;-88
2023/06/29 03:51:43;;;;;;;32.78;29.13;;;18.00;90.20;;;;;;4998779;28;20228;-88
2023/06/29 03:54:08;;;;;;;35.40;30.10;;;18.00;90.20;;;;;;4997578;28;20244;-89
2023/06/29 03:56:34;;;;;;;33.72;29.92;;;18.00;90.30;;;;;;4998113;28;20598;-88
2023/06/29 03:58:59;;;;;;;35.15;30.15;;;18.00;90.30;;;;;;5015370;28;20181;-88
2023/06/29 04:01:25;;;;;;;36.50;30.77;;;18.00;90.30;;;;;;5015603;28;20197;-88
2023/06/29 04:03:51;;;;;;;36.42;30.88;;;17.90;90.40;;;;;;4998056;28;20197;-88
2023/06/29 04:06:16;;;;;;;36.75;30.83;;;18.00;90.40;;;;;;5015064;28;20549;-88
2023/06/29 04:08:42;;;;;;;34.97;30.92;;;18.10;90.40;;;;;;4999288;28;20240;-89
2023/06/29 04:11:09;;;;;;;33.10;29.38;;;18.10;90.40;;;;;;4998868;28;20177;-88
2023/06/29 04:13:35;;;;;;;34.17;30.48;;;18.20;90.30;;;;;;4999703;28;20209;-89
2023/06/29 04:16:00;;;;;;;34.88;31.23;;;18.20;90.20;;;;;;4999056;28;20173;-88
2023/06/29 04:18:26;;;;;;;35.67;30.15;;;18.20;90.10;;;;;;4999023;28;20174;-88
2023/06/29 04:20:53;;;;;;;35.50;30.02;;;18.20;90.10;;;;;;4998253;28;20641;-88
2023/06/29 04:23:18;;;;;;;34.65;31.00;;;18.30;90.10;;;;;;5002526;28;20197;-89
2023/06/29 04:25:44;;;;;;;36.47;30.52;;;18.30;90.00;;;;;;5018797;28;20199;-88
2023/06/29 04:28:12;;;;;;;36.35;31.70;;;18.40;90.00;;;;;;5001680;28;20256;-89
2023/06/29 04:30:40;;;;;;;35.85;31.40;;;18.40;89.80;;;;;;5019189;28;20173;-89
2023/06/29 04:33:09;;;;;;;38.28;32.20;;;18.40;89.80;;;;;;5001332;28;20209;-89
2023/06/29 04:35:44;;;;;;;34.97;31.33;;;18.40;89.80;;;;;;5000594;28;20178;-89
2023/06/29 04:38:11;;;;;;;36.63;31.40;;;18.40;89.70;;;;;;5017900;28;20240;-89
2023/06/29 04:40:40;;;;;;;37.25;32.00;;;18.50;89.80;;;;;;5000463;28;20181;-88
2023/06/29 04:43:09;;;;;;;39.15;34.78;;;18.50;89.70;;;;;;4999800;28;20201;-88
2023/06/29 04:45:34;;;;;;;45.20;35.67;;;18.40;89.50;;;;;;5000027;28;20190;-89
2023/06/29 04:48:00;;;;;;;40.45;33.72;;;18.40;89.50;;;;;;5000086;28;20173;-89
2023/06/29 04:50:35;;;;;;;46.92;35.95;;;18.40;89.20;;;;;;4999828;28;20178;-88
2023/06/29 04:53:19;;;;;;;42.55;35.72;;;18.40;89.10;;;;;;5017183;28;20731;-88
2023/06/29 04:55:44;;;;;;;45.22;36.83;;;18.50;89.20;;;;;;4999577;28;20173;-88
2023/06/29 04:58:10;;;;;;;43.65;34.92;;;18.50;89.30;;;;;;4999593;28;20177;-88
2023/06/29 05:00:35;;;;;;;44.85;36.83;;;18.50;89.50;;;;;;5000831;28;20196;-88
2023/06/29 05:03:01;;;;;;;44.08;36.17;;;18.50;89.40;;;;;;5017523;28;20189;-88
2023/06/29 05:05:26;;;;;;;45.85;36.13;;;18.50;89.30;;;;;;4999596;28;20177;-88
2023/06/29 05:07:52;;;;;;;50.90;36.80;;;18.50;89.30;;;;;;4999529;28;20239;-88
2023/06/29 05:10:17;;;;;;;47.58;38.03;;;18.60;89.20;;;;;;5016634;28;20187;-88
2023/06/29 05:12:43;;;;;;;43.42;36.03;;;18.50;88.90;;;;;;4999428;28;20308;-88
2023/06/29 05:15:09;;;;;;;41.08;36.15;;;18.60;89.00;;;;;;4999745;28;20231;-88
2023/06/29 05:17:34;;;;;;;49.20;37.78;;;18.60;88.90;;;;;;4998340;28;20173;-86
2023/06/29 05:20:00;;;;;;;47.22;36.00;;;18.60;88.70;;;;;;4998778;28;20178;-85
2023/06/29 05:22:25;;;;;;;43.83;34.80;;;18.60;88.70;;;;;;4997525;28;20679;-87
2023/06/29 05:24:51;;;;;;;45.80;34.53;;;18.60;88.60;;;;;;4997566;28;20185;-86
2023/06/29 05:27:16;;;;;;;44.83;34.42;;;18.60;88.80;;;;;;4998323;28;20272;-87
2023/06/29 05:29:42;;;;;;;46.72;35.03;;;18.70;88.60;;;;;;5014943;28;20181;-86
2023/06/29 05:32:08;;;;;;;43.30;35.22;;;18.70;88.70;;;;;;4997330;28;20174;-86
2023/06/29 05:34:35;;;;;;;40.72;34.40;;;18.70;88.70;;;;;;4996467;28;20201;-86
2023/06/29 05:37:01;;;;;;;42.45;33.90;;;18.70;88.80;;;;;;5015131;28;20539;-87
2023/06/29 05:39:27;;;;;;;45.10;34.58;;;18.70;88.60;;;;;;5014758;28;20202;-86
2023/06/29 05:41:52;;;;;;;44.53;32.83;;;18.70;88.70;;;;;;5015276;28;20168;-86
2023/06/29 05:44:18;;;;;;;47.67;32.80;;;18.70;88.80;;;;;;4997973;28;20205;-87
2023/06/29 05:46:44;;;;;;;48.67;34.55;;;18.80;88.90;;;;;;5014728;28;20539;-87
2023/06/29 05:49:09;;;;;;;42.30;31.55;;;18.80;88.90;;;;;;4997172;28;20220;-86
2023/06/29 05:51:37;;;;;;;44.97;33.75;;;18.80;88.60;;;;;;4997093;28;20204;-87
2023/06/29 05:54:04;;;;;;;44.03;32.17;;;18.80;88.60;;;;;;4996973;28;20240;-86
2023/06/29 05:56:30;;;;;;;39.72;31.13;;;18.80;88.30;;;;;;5014509;28;20170;-86
2023/06/29 05:58:55;;;;;;;46.03;32.05;;;18.90;88.40;;;;;;4996907;28;20181;-86
2023/06/29 06:01:21;;;;;;;41.65;31.10;;;18.90;88.30;;;;;;5014676;28;20649;-86
2023/06/29 06:03:46;;;;;;;43.92;31.60;;;19.00;88.10;;;;;;5014327;28;20208;-85
2023/06/29 06:06:12;;;;;;;43.63;30.33;;;19.00;87.90;;;;;;4996736;28;20239;-86
2023/06/29 06:08:38;;;;;;;41.65;28.40;;;19.00;87.70;;;;;;5014935;28;20767;-86
2023/06/29 06:11:04;;;;;;;40.17;28.85;;;19.10;87.80;;;;;;4996853;28;20173;-86
2023/06/29 06:13:29;;;;;;;39.83;27.83;;;19.00;87.00;;;;;;5014086;28;20219;-86
2023/06/29 06:15:55;;;;;;;39.22;27.92;;;19.10;87.10;;;;;;4996619;28;20260;-86
2023/06/29 06:18:21;;;;;;;37.75;27.08;;;19.20;87.00;;;;;;5014421;28;20166;-86
2023/06/29 06:20:46;;;;;;;39.90;26.33;;;19.20;86.90;;;;;;4996514;28;20657;-86
2023/06/29 06:23:12;;;;;;;39.00;26.98;;;19.20;86.70;;;;;;4996495;28;20204;-87
2023/06/29 06:25:37;;;;;;;38.97;25.90;;;19.20;86.50;;;;;;5014355;28;20637;-86
2023/06/29 06:28:04;;;;;;;32.22;24.70;;;19.30;86.40;;;;;;4996430;28;20195;-86
2023/06/29 06:30:30;;;;;;;36.97;27.00;;;19.30;86.30;;;;;;4996338;28;20212;-86
2023/06/29 06:32:55;;;;;;;32.20;24.85;;;19.30;86.00;;;;;;4996167;28;20635;-86
2023/06/29 06:35:21;;;;;;;36.33;25.15;;;19.40;86.30;;;;;;5014209;28;20178;-86
2023/06/29 06:37:46;;;;;;;33.80;24.50;;;19.50;85.80;;;;;;5013879;28;20170;-87
2023/06/29 06:40:12;;;;;;;36.45;25.75;;;19.50;85.90;;;;;;5013969;28;20177;-86
2023/06/29 06:42:41;;;;;;;36.10;25.23;;;19.40;85.50;;;;;;4996284;28;20239;-86
2023/06/29 06:45:06;;;;;;;36.95;25.98;;;19.40;85.50;;;;;;4995985;28;20184;-86
2023/06/29 06:47:33;;;;;;;35.50;24.25;;;19.40;85.00;;;;;;5013574;28;20177;-87
2023/06/29 06:49:59;;;;;;;30.55;22.65;;;19.50;85.40;;;;;;4996020;28;20553;-86
2023/06/29 06:52:25;;;;;;;33.97;24.38;;;19.50;85.10;;;;;;4995983;28;20185;-86
2023/06/29 06:54:51;;;;;;;36.25;24.92;;;19.60;85.10;;;;;;4996079;28;20177;-86
2023/06/29 06:57:17;;;;;;;36.60;24.02;;;19.60;85.00;;;;;;4996485;28;20278;-86
2023/06/29 06:59:42;;;;;;;35.53;25.52;;;19.70;84.70;;;;;;4996039;28;20645;-86
2023/06/29 07:02:08;;;;;;;35.55;24.98;;;19.70;85.10;;;;;;4995972;28;20174;-86
2023/06/29 07:04:33;;;;;;;35.20;26.40;;;19.80;85.10;;;;;;4995931;28;20227;-86
2023/06/29 07:06:59;;;;;;;35.90;24.55;;;19.90;84.40;;;;;;4996211;28;20189;-86
2023/06/29 07:09:25;;;;;;;34.08;23.83;;;20.00;84.50;;;;;;4995941;28;20182;-86
2023/06/29 07:11:50;;;;;;;35.70;24.92;;;20.10;84.40;;;;;;5013721;28;20177;-86
2023/06/29 07:14:16;;;;;;;36.72;24.60;;;20.10;84.40;;;;;;4995667;28;20249;-86
2023/06/29 07:16:42;;;;;;;28.40;24.20;;;20.10;84.20;;;;;;4995775;28;20197;-86
2023/06/29 07:19:11;;;;;;;38.28;24.42;;;20.30;84.10;;;;;;4995745;28;20173;-86
2023/06/29 07:21:36;;;;;;;38.08;24.25;;;20.20;83.70;;;;;;5013294;28;20181;-86
2023/06/29 07:24:02;;;;;;;30.73;23.77;;;20.20;83.60;;;;;;4995639;28;20637;-86
2023/06/29 07:26:28;;;;;;;38.83;24.35;;;20.30;83.40;;;;;;4995713;28;20177;-85
2023/06/29 07:28:53;;;;;;;40.72;26.08;;;20.40;83.80;;;;;;5013677;28;20165;-86
2023/06/29 07:31:24;;;;;;;35.50;25.60;;;20.40;83.30;;;;;;4995641;28;20181;-86
2023/06/29 07:33:50;;;;;;;40.10;26.02;;;20.60;84.10;;;;;;5013156;28;20220;-86
2023/06/29 07:36:15;;;;;;;39.15;25.95;;;20.60;83.30;;;;;;4995537;28;20170;-86
2023/06/29 07:38:42;;;;;;;30.42;24.23;;;20.70;83.10;;;;;;4995599;28;20197;-86
2023/06/29 07:41:08;;;;;;;41.83;26.58;;;20.80;83.70;;;;;;4995537;28;20173;-86
2023/06/29 07:43:34;;;;;;;33.88;26.05;;;20.80;83.10;;;;;;4995382;28;20746;-86
2023/06/29 07:46:01;;;;;;;35.33;26.65;;;20.80;82.60;;;;;;5013033;28;20591;-86
2023/06/29 07:48:27;;;;;;;34.20;26.73;;;20.70;82.30;;;;;;4995382;28;20184;-86
2023/06/29 07:50:53;;;;;;;41.55;28.08;;;20.80;82.40;;;;;;4995381;28;20178;-87
2023/06/29 07:53:19;;;;;;;42.88;26.77;;;20.70;81.80;;;;;;5012743;28;20704;-86
2023/06/29 07:55:44;;;;;;;38.30;26.95;;;20.90;82.10;;;;;;5012937;28;20579;-86
2023/06/29 07:58:10;;;;;;;37.95;26.05;;;21.00;82.30;;;;;;4999004;28;20667;-86
2023/06/29 08:00:35;;;;;;;40.50;26.70;;;21.00;81.90;;;;;;5017316;28;20174;-86
2023/06/29 08:03:01;;;;;;;42.70;28.92;;;21.10;82.00;;;;;;5016754;28;20251;-86
2023/06/29 08:05:27;;;;;;;38.53;27.00;;;21.00;81.70;;;;;;5016654;28;20532;-86
2023/06/29 08:07:52;;;;;;;40.10;27.77;;;21.00;81.50;;;;;;5017004;28;20554;-86
2023/06/29 08:10:18;;;;;;;39.45;27.95;;;21.20;82.20;;;;;;4998998;28;20637;-86
2023/06/29 08:12:44;;;;;;;39.92;27.23;;;21.20;81.60;;;;;;5016486;28;20216;-86
2023/06/29 08:15:10;;;;;;;42.60;28.60;;;21.40;81.20;;;;;;4998867;28;20200;-86
2023/06/29 08:17:35;;;;;;;37.63;28.10;;;21.70;81.80;;;;;;5016374;28;20340;-87
2023/06/29 08:20:01;;;;;;;40.63;28.35;;;21.70;80.80;;;;;;5016331;28;20510;-86
2023/06/29 08:22:26;;;;;;;41.30;29.45;;;21.80;80.00;;;;;;4998812;28;20169;-86
2023/06/29 08:24:52;;;;;;;39.75;29.00;;;21.70;79.90;;;;;;5016571;28;20644;-86
2023/06/29 08:27:19;;;;;;;36.60;28.23;;;21.70;79.80;;;;;;4999287;28;20589;-87
2023/06/29 08:29:45;;;;;;;40.30;27.42;;;21.80;80.10;;;;;;4998512;28;20173;-86
2023/06/29 08:32:10;;;;;;;36.78;29.75;;;21.80;80.70;;;;;;4998530;28;20177;-87
2023/06/29 08:34:36;;;;;;;39.83;27.67;;;21.80;79.20;;;;;;5015963;28;20285;-87
2023/06/29 08:37:01;;;;;;;37.10;26.05;;;21.80;79.90;;;;;;4998460;28;20174;-87
2023/06/29 08:39:27;;;;;;;37.67;27.15;;;22.10;79.90;;;;;;5016065;28;20209;-87
2023/06/29 08:41:53;;;;;;;37.83;27.77;;;22.20;79.10;;;;;;4998374;28;20592;-87
2023/06/29 08:44:19;;;;;;;38.55;28.80;;;22.20;78.60;;;;;;5015832;28;20197;-86
2023/06/29 08:46:47;;;;;;;42.97;28.23;;;22.10;78.60;;;;;;4998308;28;20223;-87
2023/06/29 08:49:15;;;;;;;38.97;29.15;;;22.20;78.10;;;;;;5015744;28;20184;-87
2023/06/29 08:51:43;;;;;;;35.97;26.48;;;22.20;78.00;;;;;;4998168;28;20556;-86
2023/06/29 08:54:11;;;;;;;35.08;27.00;;;22.20;78.10;;;;;;4998002;28;20715;-86
2023/06/29 08:56:37;;;;;;;37.50;28.33;;;22.20;78.30;;;;;;4997996;28;20224;-86
2023/06/29 08:59:03;;;;;;;35.53;26.48;;;22.40;77.60;;;;;;4999736;28;20173;-86
2023/06/29 09:01:30;;;;;;;38.17;28.52;;;22.60;77.60;;;;;;4998110;28;20617;-87
2023/06/29 09:03:55;;;;;;;36.72;26.95;;;23.00;76.90;;;;;;5015704;28;20189;-86
2023/06/29 09:06:22;;;;;;;35.75;26.48;;;22.90;75.60;;;;;;4998412;28;20212;-86
2023/06/29 09:08:47;;;;;;;40.92;29.13;;;23.00;77.20;;;;;;5014745;28;20166;-85
2023/06/29 09:11:13;;;;;;;37.65;28.75;;;22.60;75.80;;;;;;5015786;28;20184;-86
2023/06/29 09:13:39;;;;;;;36.08;27.77;;;22.40;76.40;;;;;;5015498;28;20197;-86
2023/06/29 09:16:04;;;;;;;34.65;28.17;;;22.80;77.00;;;;;;5015737;28;20238;-86
2023/06/29 09:18:32;;;;;;;43.83;31.42;;;22.80;75.70;;;;;;4997741;28;20173;-86
2023/06/29 09:20:58;;;;;;;42.72;29.27;;;22.70;75.50;;;;;;4997621;28;20272;-86
2023/06/29 09:23:28;;;;;;;36.17;29.48;;;22.90;76.00;;;;;;4997558;28;20278;-86
2023/06/29 09:25:55;;;;;;;38.13;29.55;;;22.80;74.70;;;;;;4997419;28;20180;-86
2023/06/29 09:28:21;;;;;;;33.70;28.38;;;22.80;75.60;;;;;;4997822;28;20653;-86
2023/06/29 09:30:49;;;;;;;38.42;29.80;;;22.80;76.00;;;;;;4997793;28;20182;-85
2023/06/29 09:33:15;;;;;;;42.05;33.20;;;22.70;76.50;;;;;;5013961;28;20485;-86
2023/06/29 09:35:47;;;;;;;40.92;30.33;;;22.50;76.60;;;;;;4997959;28;20618;-86
2023/06/29 09:38:15;;;;;;;40.47;30.80;;;22.70;76.70;;;;;;4998051;28;20173;-85
2023/06/29 09:40:52;;;;;;;40.80;28.67;;;22.60;76.70;;;;;;4998014;28;20256;-86
2023/06/29 09:43:25;;;;;;;45.08;29.33;;;22.70;77.30;;;;;;5015329;28;20304;-86
2023/06/29 09:45:52;;;;;;;37.33;30.63;;;22.60;76.30;;;;;;4997483;28;20641;-86
2023/06/29 09:48:21;;;;;;;60.22;32.03;;;22.60;75.20;;;;;;5017356;28;20209;-84
2023/06/29 09:50:52;;;;;;;42.67;29.27;;;22.40;75.80;;;;;;5000013;28;20177;-85
2023/06/29 09:53:30;;;;;;;37.40;29.13;;;22.70;75.90;;;;;;5016104;28;20220;-86
2023/06/29 09:56:00;;;;;;;40.97;29.83;;;22.80;75.70;;;;;;5014692;28;20621;-87
2023/06/29 09:58:30;;;;;;;38.42;27.92;;;22.80;75.50;;;;;;4997135;28;20216;-86
2023/06/29 10:00:58;;;;;;;38.85;28.23;;;22.60;76.40;;;;;;5014639;28;20547;-87
2023/06/29 10:03:25;;;;;;;40.45;26.55;;;22.70;76.50;;;;;;4997168;28;20197;-85
2023/06/29 10:05:56;;;;;;;37.47;29.05;;;22.80;75.60;;;;;;5014626;28;20174;-86
2023/06/29 10:08:22;;;;;;;36.58;27.48;;;22.70;76.10;;;;;;4997464;28;20649;-86
2023/06/29 10:10:56;;;;;;;34.78;27.20;;;22.70;76.90;;;;;;4997610;28;20188;-86
2023/06/29 10:13:22;;;;;;;35.35;27.55;;;22.80;76.10;;;;;;4997014;28;20283;-86
2023/06/29 10:15:51;;;;;;;33.08;26.98;;;22.60;76.20;;;;;;4996852;28;20177;-86
2023/06/29 10:18:29;;;;;;;39.95;26.45;;;22.60;76.50;;;;;;4996799;28;20177;-86
2023/06/29 10:20:56;;;;;;;36.13;25.30;;;22.60;76.20;;;;;;5014210;28;20166;-86
2023/06/29 10:23:23;;;;;;;35.60;27.17;;;22.50;76.40;;;;;;4996937;28;20224;-86
2023/06/29 10:25:50;;;;;;;33.58;25.20;;;22.40;75.50;;;;;;4996796;28;20183;-86
2023/06/29 10:28:17;;;;;;;34.35;26.50;;;22.60;77.00;;;;;;5014630;28;20173;-86
2023/06/29 10:30:48;;;;;;;33.78;25.40;;;22.50;75.30;;;;;;5014912;28;20212;-86
2023/06/29 10:33:21;;;;;;;39.10;25.38;;;22.70;77.20;;;;;;5014407;28;20280;-86
2023/06/29 10:36:03;;;;;;;30.70;25.90;;;22.70;76.20;;;;;;5013937;28;20184;-86
2023/06/29 10:38:33;;;;;;;33.22;24.45;;;22.70;76.10;;;;;;4997686;28;20216;-86
2023/06/29 10:40:59;;;;;;;30.83;23.92;;;22.60;75.90;;;;;;4997215;28;20178;-86
2023/06/29 10:43:28;;;;;;;35.10;26.52;;;22.50;76.90;;;;;;4996453;28;20197;-86
2023/06/29 10:45:53;;;;;;;32.95;24.13;;;22.40;76.30;;;;;;4996296;28;20316;-86
2023/06/29 10:48:20;;;;;;;31.83;24.02;;;22.20;76.50;;;;;;4996097;28;20655;-86
2023/06/29 10:50:47;;;;;;;28.70;23.98;;;22.20;76.70;;;;;;5013891;28;20181;-86
2023/06/29 10:53:17;;;;;;;34.90;22.77;;;22.20;77.60;;;;;;4996463;28;20722;-86
2023/06/29 10:55:51;;;;;;;39.20;25.33;;;22.10;77.50;;;;;;5014055;28;20184;-85
2023/06/29 10:58:28;;;;;;;33.97;25.05;;;22.00;77.70;;;;;;4996167;28;20177;-86
2023/06/29 11:00:54;;;;;;;37.92;24.25;;;22.00;77.80;;;;;;4997349;28;20629;-85
2023/06/29 11:03:20;;;;;;;27.92;22.27;;;21.90;77.10;;;;;;4997190;28;20267;-85
2023/06/29 11:05:47;;;;;;;37.17;25.17;;;22.00;77.90;;;;;;4996598;28;20295;-86
2023/06/29 11:08:14;;;;;;;36.17;24.38;;;22.00;78.00;;;;;;4996187;28;20239;-86
2023/06/29 11:10:39;;;;;;;31.48;23.13;;;22.00;78.00;;;;;;4996032;28;20802;-87
2023/06/29 11:13:09;;;;;;;34.92;23.38;;;22.20;78.20;;;;;;5013480;28;20248;-86
2023/06/29 11:15:35;;;;;;;29.52;23.17;;;22.20;77.90;;;;;;5013711;28;20522;-86
2023/06/29 11:18:06;;;;;;;32.85;21.83;;;22.20;77.20;;;;;;5013313;28;20173;-86
2023/06/29 11:20:35;;;;;;;27.25;22.38;;;22.30;77.50;;;;;;4996027;28;20245;-87
2023/06/29 11:23:01;;;;;;;25.65;21.10;;;22.20;77.90;;;;;;4996122;28;20201;-87
2023/06/29 11:25:28;;;;;;;22.48;19.15;;;22.00;78.10;;;;;;4996103;28;20180;-87
2023/06/29 11:27:54;;;;;;;25.73;20.67;;;22.00;78.60;;;;;;4995947;28;20220;-87
2023/06/29 11:30:20;;;;;;;29.75;22.80;;;21.70;79.20;;;;;;4996576;28;20181;-86
2023/06/29 11:32:50;;;;;;;28.23;21.10;;;21.70;79.20;;;;;;4999055;28;20204;-87
2023/06/29 11:35:17;;;;;;;30.77;22.08;;;21.60;79.00;;;;;;5001033;28;20550;-86
2023/06/29 11:37:42;;;;;;;31.80;22.63;;;21.70;79.60;;;;;;5017242;28;20663;-86
2023/06/29 11:40:22;;;;;;;33.90;23.63;;;21.80;80.00;;;;;;4999632;28;20173;-86
2023/06/29 11:42:49;;;;;;;36.58;24.95;;;21.90;79.50;;;;;;4999748;28;20201;-86
2023/06/29 11:45:20;;;;;;;40.75;25.42;;;21.80;79.10;;;;;;5017430;28;20184;-85
2023/06/29 11:47:51;;;;;;;35.78;24.38;;;21.80;79.50;;;;;;5017193;28;20246;-86
2023/06/29 11:50:17;;;;;;;37.28;25.35;;;21.90;79.30;;;;;;4999562;28;20668;-87
2023/06/29 11:52:44;;;;;;;31.88;24.73;;;21.70;78.80;;;;;;4999174;28;20267;-86
2023/06/29 11:55:12;;;;;;;35.88;25.73;;;21.90;79.90;;;;;;4999584;28;20228;-85
2023/06/29 11:57:39;;;;;;;38.70;26.58;;;21.90;79.60;;;;;;4999388;28;20188;-87
2023/06/29 12:00:26;;;;;;;37.67;26.52;;;21.70;78.50;;;;;;4999421;28;20205;-85
2023/06/29 12:02:51;;;;;;;33.83;26.60;;;21.70;78.90;;;;;;4999144;28;20689;-87
2023/06/29 12:05:17;;;;;;;32.65;27.23;;;21.70;79.20;;;;;;4999171;28;20212;-84
2023/06/29 12:07:46;;;;;;;33.30;27.00;;;21.80;79.50;;;;;;4998998;28;20232;-86
2023/06/29 12:10:19;;;;;;;38.78;27.25;;;21.80;79.20;;;;;;4999161;28;20217;-85
2023/06/29 12:12:55;;;;;;;37.30;28.05;;;21.90;79.00;;;;;;4999735;28;20209;-85
2023/06/29 12:15:34;;;;;;;38.08;27.25;;;21.90;79.10;;;;;;5016459;28;20149;-85
2023/06/29 12:18:07;;;;;;;34.13;26.40;;;21.90;79.30;;;;;;5016752;28;20158;-85
2023/06/29 12:20:38;;;;;;;33.08;26.10;;;21.90;78.90;;;;;;4998821;28;20261;-86
2023/06/29 12:23:03;;;;;;;33.70;25.77;;;22.00;79.20;;;;;;4998793;28;20259;-86
2023/06/29 12:25:29;;;;;;;33.05;24.83;;;21.90;78.80;;;;;;5016199;28;20628;-85
2023/06/29 12:27:54;;;;;;;33.10;24.60;;;21.80;78.70;;;;;;4998593;28;20178;-85